createdAt,value
2023-02-18T00:00:22.875Z,1.15
2023-02-18T00:02:55.620Z,1.25
2023-02-18T00:05:28.694Z,1.20
2023-02-18T00:08:01.401Z,1.21
2023-02-18T00:10:33.693Z,1.26
2023-02-18T00:13:05.981Z,1.26
2023-02-18T00:15:38.963Z,1.29
2023-02-18T00:18:11.283Z,1.29
2023-02-18T00:20:43.599Z,1.36
2023-02-18T00:23:15.852Z,1.42
2023-02-18T00:25:48.163Z,1.53
2023-02-18T00:28:20.416Z,1.59
2023-02-18T00:30:53.782Z,1.61
2023-02-18T00:33:26.130Z,1.64
2023-02-18T00:36:01.711Z,1.69
2023-02-18T00:38:34.415Z,1.75
2023-02-18T00:41:06.759Z,1.80
2023-02-18T00:43:39.695Z,1.84
2023-02-18T00:46:12.855Z,1.81
2023-02-18T00:48:45.167Z,1.85
2023-02-18T00:51:17.718Z,1.86
2023-02-18T00:53:50.064Z,1.91
2023-02-18T00:56:22.899Z,1.94
2023-02-18T00:58:55.165Z,1.96
2023-02-18T01:01:28.162Z,2.00
2023-02-18T01:04:00.898Z,2.04
2023-02-18T01:06:33.502Z,2.08
2023-02-18T01:09:08.085Z,2.09
2023-02-18T01:11:40.383Z,2.12
2023-02-18T01:14:12.697Z,2.13
2023-02-18T01:16:45.639Z,2.20
2023-02-18T01:19:17.932Z,2.26
2023-02-18T01:21:50.224Z,2.28
2023-02-18T01:24:22.703Z,2.28
2023-02-18T01:26:55.442Z,2.25
2023-02-18T01:29:27.748Z,2.27
2023-02-18T01:32:01.618Z,2.28
2023-02-18T01:34:34.105Z,2.28
2023-02-18T01:37:06.381Z,2.25
2023-02-18T01:39:41.090Z,2.28
2023-02-18T01:42:19.693Z,2.23
2023-02-18T01:44:52.382Z,2.21
2023-02-18T01:47:25.350Z,2.08
2023-02-18T01:49:57.667Z,1.87
2023-02-18T01:52:32.354Z,1.90
2023-02-18T01:55:05.860Z,1.86
2023-02-18T01:57:38.763Z,1.80
2023-02-18T02:00:15.367Z,1.79
2023-02-18T02:02:51.253Z,1.63
2023-02-18T02:05:23.590Z,1.77
2023-02-18T02:07:55.998Z,1.77
2023-02-18T02:10:45.952Z,1.62
2023-02-18T02:13:29.401Z,1.78
2023-02-18T02:16:08.989Z,1.72
2023-02-18T02:18:48.909Z,1.73
2023-02-18T02:22:04.666Z,1.71
2023-02-18T02:25:00.382Z,1.75
2023-02-18T02:27:57.562Z,1.79
2023-02-18T02:30:52.838Z,1.86
2023-02-18T02:34:03.812Z,1.87
2023-02-18T02:36:43.476Z,1.87
2023-02-18T02:39:19.587Z,1.94
2023-02-18T02:41:58.303Z,1.91
2023-02-18T02:44:38.711Z,1.93
2023-02-18T02:47:28.278Z,1.93
2023-02-18T02:50:06.403Z,1.97
2023-02-18T02:52:45.735Z,1.99
2023-02-18T02:55:18.060Z,2.03
2023-02-18T02:57:53.898Z,2.05
2023-02-18T03:00:44.690Z,2.09
2023-02-18T03:03:42.726Z,2.07
2023-02-18T03:06:32.950Z,2.06
2023-02-18T03:09:13.746Z,2.03
2023-02-18T03:11:53.909Z,1.98
2023-02-18T03:14:29.922Z,1.96
2023-02-18T03:17:11.002Z,1.97
2023-02-18T03:19:46.979Z,1.89
2023-02-18T03:22:24.105Z,1.86
2023-02-18T03:24:59.729Z,1.85
2023-02-18T03:27:35.608Z,1.84
2023-02-18T03:30:15.787Z,1.83
2023-02-18T03:32:51.729Z,1.87
2023-02-18T03:35:25.889Z,1.85
2023-02-18T03:38:02.298Z,1.81
2023-02-18T03:40:36.141Z,1.79
2023-02-18T03:43:09.333Z,1.82
2023-02-18T03:45:41.970Z,1.80
2023-02-18T03:48:14.535Z,1.86
2023-02-18T03:50:46.916Z,1.88
2023-02-18T03:53:19.450Z,1.92
2023-02-18T03:55:52.500Z,1.93
2023-02-18T03:58:24.826Z,1.93
2023-02-18T04:00:57.416Z,1.90
2023-02-18T04:03:29.727Z,1.94
2023-02-18T04:06:02.273Z,1.96
2023-02-18T04:08:34.838Z,1.95
2023-02-18T04:11:08.132Z,1.94
2023-02-18T04:13:40.492Z,1.90
2023-02-18T04:16:13.359Z,1.88
2023-02-18T04:18:45.711Z,1.86
2023-02-18T04:21:17.971Z,1.89
2023-02-18T04:23:50.243Z,1.91
2023-02-18T04:26:23.219Z,1.89
2023-02-18T04:28:55.540Z,1.87
2023-02-18T04:31:27.971Z,1.69
2023-02-18T04:34:00.917Z,1.76
2023-02-18T04:36:33.347Z,1.76
2023-02-18T04:39:05.666Z,1.78
2023-02-18T04:41:38.890Z,1.74
2023-02-18T04:44:11.247Z,1.69
2023-02-18T04:46:43.576Z,1.60
2023-02-18T04:49:15.891Z,1.58
2023-02-18T04:51:48.165Z,1.57
2023-02-18T04:54:20.514Z,1.52
2023-02-18T04:56:53.943Z,1.43
2023-02-18T04:59:26.542Z,1.43
2023-02-18T05:01:58.859Z,1.39
2023-02-18T05:04:38.169Z,1.38
2023-02-18T05:07:10.470Z,1.38
2023-02-18T05:09:42.823Z,1.34
2023-02-18T05:12:15.847Z,1.31
2023-02-18T05:14:48.203Z,1.31
2023-02-18T05:17:20.680Z,1.30
2023-02-18T05:19:53.055Z,1.26
2023-02-18T05:22:25.525Z,1.29
2023-02-18T05:24:57.801Z,1.32
2023-02-18T05:27:30.920Z,1.39
2023-02-18T05:30:03.871Z,1.33
2023-02-18T05:32:36.336Z,1.36
2023-02-18T05:35:08.995Z,1.36
2023-02-18T05:37:41.240Z,1.37
2023-02-18T05:40:13.534Z,1.37
2023-02-18T05:42:46.732Z,1.37
2023-02-18T05:45:18.983Z,1.42
2023-02-18T05:47:51.318Z,1.48
2023-02-18T05:50:23.658Z,1.56
2023-02-18T05:52:56.070Z,1.59
2023-02-18T05:55:28.605Z,1.64
2023-02-18T05:58:01.598Z,1.72
2023-02-18T06:00:33.903Z,1.76
2023-02-18T06:03:06.443Z,1.74
2023-02-18T06:05:38.786Z,1.90
2023-02-18T06:08:11.063Z,1.98
2023-02-18T06:10:43.340Z,2.08
2023-02-18T06:13:16.665Z,2.17
2023-02-18T06:15:50.388Z,2.20
2023-02-18T06:18:23.321Z,2.13
2023-02-18T06:20:55.905Z,2.32
2023-02-18T06:23:28.221Z,2.33
2023-02-18T06:26:01.052Z,2.45
2023-02-18T06:28:33.972Z,2.53
2023-02-18T06:31:06.428Z,2.59
2023-02-18T06:33:38.791Z,2.67
2023-02-18T06:36:12.813Z,2.74
2023-02-18T06:38:45.566Z,2.74
2023-02-18T06:41:17.851Z,2.87
2023-02-18T06:43:50.847Z,2.92
2023-02-18T06:46:23.196Z,3.03
2023-02-18T06:48:55.479Z,3.08
2023-02-18T06:51:27.965Z,3.08
2023-02-18T06:54:00.325Z,3.16
2023-02-18T06:56:33.015Z,3.29
2023-02-18T06:59:05.988Z,3.36
2023-02-18T07:01:38.225Z,3.34
2023-02-18T07:04:10.611Z,3.48
2023-02-18T07:06:43.007Z,3.52
2023-02-18T07:09:15.330Z,3.55
2023-02-18T07:11:47.655Z,3.56
2023-02-18T07:14:20.603Z,3.53
2023-02-18T07:16:52.914Z,3.66
2023-02-18T07:19:25.184Z,3.59
2023-02-18T07:21:57.536Z,3.74
2023-02-18T07:24:29.930Z,3.79
2023-02-18T07:27:02.457Z,3.83
2023-02-18T07:29:35.416Z,3.80
2023-02-18T07:32:07.753Z,3.97
2023-02-18T07:34:40.276Z,4.06
2023-02-18T07:37:12.574Z,4.17
2023-02-18T07:39:45.203Z,4.22
2023-02-18T07:42:17.622Z,4.29
2023-02-18T07:44:50.810Z,4.42
2023-02-18T07:47:23.373Z,4.49
2023-02-18T07:49:55.633Z,4.48
2023-02-18T07:52:27.929Z,4.51
2023-02-18T07:55:00.293Z,4.68
2023-02-18T07:57:32.681Z,4.79
2023-02-18T08:00:07.185Z,4.88
2023-02-18T08:02:44.790Z,5.01
2023-02-18T08:05:17.109Z,5.21
2023-02-18T08:07:49.425Z,5.40
2023-02-18T08:10:21.897Z,5.53
2023-02-18T08:12:54.175Z,5.70
2023-02-18T08:15:27.216Z,5.91
2023-02-18T08:18:00.054Z,6.04
2023-02-18T08:20:36.283Z,6.08
2023-02-18T08:23:10.824Z,6.27
2023-02-18T08:25:45.171Z,6.43
2023-02-18T08:28:17.899Z,6.56
2023-02-18T08:30:52.809Z,6.63
2023-02-18T08:33:25.767Z,6.71
2023-02-18T08:35:58.243Z,6.68
2023-02-18T08:38:30.557Z,6.81
2023-02-18T08:41:04.069Z,6.93
2023-02-18T08:43:36.631Z,7.05
2023-02-18T08:46:15.802Z,7.09
2023-02-18T08:48:48.665Z,7.23
2023-02-18T08:51:22.432Z,7.33
2023-02-18T08:53:54.741Z,7.39
2023-02-18T08:56:27.111Z,7.47
2023-02-18T08:58:59.498Z,7.55
2023-02-18T09:01:32.518Z,7.56
2023-02-18T09:04:05.132Z,7.60
2023-02-18T09:06:38.031Z,7.61
2023-02-18T09:09:10.347Z,7.75
2023-02-18T09:11:43.325Z,7.93
2023-02-18T09:14:16.171Z,8.13
2023-02-18T09:16:49.957Z,8.10
2023-02-18T09:19:22.281Z,8.31
2023-02-18T09:21:56.389Z,8.40
2023-02-18T09:24:37.038Z,8.59
2023-02-18T09:27:11.253Z,8.73
2023-02-18T09:29:44.235Z,8.85
2023-02-18T09:32:28.786Z,8.99
2023-02-18T09:35:05.348Z,9.25
2023-02-18T09:37:39.208Z,9.47
2023-02-18T09:40:23.952Z,9.69
2023-02-18T09:42:57.610Z,9.91
2023-02-18T09:45:30.418Z,10.16
2023-02-18T09:48:05.156Z,10.30
2023-02-18T09:50:37.576Z,10.55
2023-02-18T09:53:12.255Z,10.81
2023-02-18T09:55:45.718Z,10.98
2023-02-18T09:58:20.642Z,10.88
2023-02-18T10:01:00.930Z,10.97
2023-02-18T10:03:33.916Z,11.07
2023-02-18T10:06:10.158Z,11.04
2023-02-18T10:08:45.234Z,11.34
2023-02-18T10:11:23.155Z,11.60
2023-02-18T10:13:56.715Z,11.69
2023-02-18T10:16:29.164Z,12.00
2023-02-18T10:19:11.070Z,12.19
2023-02-18T10:21:43.708Z,12.34
2023-02-18T10:24:27.143Z,12.31
2023-02-18T10:27:00.049Z,12.39
2023-02-18T10:29:33.012Z,12.53
2023-02-18T10:32:16.508Z,12.78
2023-02-18T10:34:53.497Z,12.62
2023-02-18T10:37:51.093Z,12.77
2023-02-18T10:40:29.697Z,12.97
2023-02-18T10:43:10.466Z,13.13
2023-02-18T10:45:48.850Z,13.17
2023-02-18T10:48:45.359Z,13.11
2023-02-18T10:51:22.011Z,13.33
2023-02-18T10:53:55.137Z,13.40
2023-02-18T10:56:40.440Z,13.42
2023-02-18T10:59:18.481Z,13.26
2023-02-18T11:01:56.896Z,13.42
2023-02-18T11:04:36.841Z,13.72
2023-02-18T11:07:15.124Z,13.96
2023-02-18T11:09:50.227Z,13.92
2023-02-18T11:12:25.100Z,13.94
2023-02-18T11:15:15.975Z,13.92
2023-02-18T11:17:50.287Z,14.09
2023-02-18T11:20:29.942Z,14.13
2023-02-18T11:23:19.382Z,14.04
2023-02-18T11:25:58.822Z,14.13
2023-02-18T11:28:37.194Z,14.31
2023-02-18T11:31:11.999Z,14.28
2023-02-18T11:33:49.762Z,13.92
2023-02-18T11:36:24.870Z,14.00
2023-02-18T11:38:59.628Z,13.90
2023-02-18T11:41:35.486Z,13.79
2023-02-18T11:44:19.891Z,14.29
2023-02-18T11:46:57.595Z,14.56
2023-02-18T11:49:33.259Z,14.13
2023-02-18T11:52:16.683Z,14.20
2023-02-18T11:55:02.050Z,14.05
2023-02-18T11:57:39.285Z,13.92
2023-02-18T12:00:20.272Z,14.34
2023-02-18T12:02:56.496Z,14.57
2023-02-18T12:05:32.162Z,14.69
2023-02-18T12:08:10.992Z,14.67
2023-02-18T12:10:47.757Z,14.71
2023-02-18T12:13:26.044Z,14.76
2023-02-18T12:16:10.385Z,15.11
2023-02-18T12:19:05.931Z,15.10
2023-02-18T12:21:54.869Z,15.21
2023-02-18T12:24:43.299Z,15.06
2023-02-18T12:27:22.136Z,15.09
2023-02-18T12:30:10.398Z,14.77
2023-02-18T12:32:48.623Z,15.02
2023-02-18T12:35:37.992Z,14.94
2023-02-18T12:38:30.654Z,15.11
2023-02-18T12:41:16.096Z,15.01
2023-02-18T12:44:00.045Z,15.05
2023-02-18T12:46:43.193Z,14.81
2023-02-18T12:49:36.856Z,14.37
2023-02-18T12:52:22.250Z,14.52
2023-02-18T12:55:17.685Z,14.33
2023-02-18T12:58:01.474Z,14.44
2023-02-18T13:01:01.070Z,14.44
2023-02-18T13:03:50.129Z,14.26
2023-02-18T13:06:38.724Z,14.50
2023-02-18T13:09:20.446Z,14.60
2023-02-18T13:11:56.936Z,14.70
2023-02-18T13:14:33.258Z,14.72
2023-02-18T13:17:10.484Z,14.68
2023-02-18T13:19:49.198Z,14.67
2023-02-18T13:22:24.136Z,14.40
2023-02-18T13:24:59.107Z,14.62
2023-02-18T13:27:38.803Z,14.46
2023-02-18T13:30:19.167Z,14.28
2023-02-18T13:33:03.555Z,14.21
2023-02-18T13:35:42.498Z,13.85
2023-02-18T13:38:49.170Z,13.91
2023-02-18T13:41:22.161Z,13.59
2023-02-18T13:43:54.558Z,13.34
2023-02-18T13:46:27.594Z,13.68
2023-02-18T13:49:11.270Z,13.59
2023-02-18T13:51:47.914Z,13.54
2023-02-18T13:54:24.837Z,13.50
2023-02-18T13:57:02.097Z,13.59
2023-02-18T13:59:39.818Z,13.63
2023-02-18T14:02:36.391Z,13.60
2023-02-18T14:05:24.824Z,13.42
2023-02-18T14:08:10.955Z,13.44
2023-02-18T14:11:18.128Z,13.46
2023-02-18T14:13:54.842Z,13.62
2023-02-18T14:16:47.555Z,13.68
2023-02-18T14:19:28.538Z,13.69
2023-02-18T14:22:27.063Z,13.65
2023-02-18T14:25:04.100Z,13.42
2023-02-18T14:27:38.102Z,13.68
2023-02-18T14:30:19.968Z,13.61
2023-02-18T14:32:56.983Z,13.48
2023-02-18T14:35:35.030Z,13.15
2023-02-18T14:38:22.996Z,13.11
2023-02-18T14:41:18.616Z,13.14
2023-02-18T14:44:19.294Z,13.18
2023-02-18T14:47:06.229Z,13.09
2023-02-18T14:49:42.427Z,12.98
2023-02-18T14:52:21.897Z,12.94
2023-02-18T14:54:55.507Z,12.99
2023-02-18T14:57:36.523Z,13.05
2023-02-18T15:00:16.288Z,13.09
2023-02-18T15:02:50.530Z,13.01
2023-02-18T15:05:24.859Z,12.96
2023-02-18T15:07:59.161Z,12.97
2023-02-18T15:10:41.413Z,12.92
2023-02-18T15:13:18.146Z,12.77
2023-02-18T15:15:53.363Z,12.62
2023-02-18T15:18:31.068Z,12.59
2023-02-18T15:21:05.936Z,12.34
2023-02-18T15:23:40.663Z,12.37
2023-02-18T15:26:15.585Z,12.30
2023-02-18T15:28:59.967Z,12.23
2023-02-18T15:31:38.433Z,12.29
2023-02-18T15:34:29.949Z,12.20
2023-02-18T15:37:04.161Z,12.07
2023-02-18T15:39:38.082Z,12.13
2023-02-18T15:42:19.190Z,12.20
2023-02-18T15:44:55.394Z,12.01
2023-02-18T15:47:28.217Z,12.00
2023-02-18T15:50:03.047Z,11.91
2023-02-18T15:52:38.604Z,11.50
2023-02-18T15:55:14.838Z,11.26
2023-02-18T15:57:49.145Z,11.32
2023-02-18T16:00:27.097Z,11.14
2023-02-18T16:03:04.606Z,11.24
2023-02-18T16:05:38.575Z,11.18
2023-02-18T16:08:14.893Z,11.09
2023-02-18T16:10:52.964Z,11.18
2023-02-18T16:13:28.619Z,11.07
2023-02-18T16:16:01.577Z,10.88
2023-02-18T16:18:38.772Z,10.67
2023-02-18T16:21:25.033Z,10.75
2023-02-18T16:23:59.438Z,10.74
2023-02-18T16:26:40.855Z,10.73
2023-02-18T16:29:15.920Z,10.59
2023-02-18T16:31:48.275Z,10.57
2023-02-18T16:34:20.635Z,10.40
2023-02-18T16:37:07.726Z,10.17
2023-02-18T16:39:40.008Z,10.16
2023-02-18T16:42:13.225Z,10.20
2023-02-18T16:44:47.411Z,10.15
2023-02-18T16:47:20.093Z,10.02
2023-02-18T16:49:53.133Z,9.93
2023-02-18T16:52:25.427Z,9.96
2023-02-18T16:54:57.822Z,9.97
2023-02-18T16:57:30.137Z,9.94
2023-02-18T17:00:04.343Z,9.90
2023-02-18T17:02:36.793Z,9.87
2023-02-18T17:05:25.458Z,9.76
2023-02-18T17:08:04.503Z,9.62
2023-02-18T17:10:36.866Z,9.50
2023-02-18T17:13:13.058Z,9.45
2023-02-18T17:15:48.044Z,9.30
2023-02-18T17:18:20.620Z,9.23
2023-02-18T17:20:53.807Z,9.17
2023-02-18T17:23:26.138Z,8.86
2023-02-18T17:25:58.414Z,8.91
2023-02-18T17:28:30.763Z,8.89
2023-02-18T17:31:04.131Z,8.69
2023-02-18T17:33:36.456Z,8.54
2023-02-18T17:36:09.752Z,8.66
2023-02-18T17:38:42.286Z,8.66
2023-02-18T17:41:14.994Z,8.62
2023-02-18T17:43:47.292Z,8.59
2023-02-18T17:46:20.238Z,8.62
2023-02-18T17:48:52.568Z,8.59
2023-02-18T17:51:28.832Z,8.55
2023-02-18T17:54:01.369Z,8.59
2023-02-18T17:56:35.496Z,8.54
2023-02-18T17:59:07.787Z,8.54
2023-02-18T18:01:41.646Z,8.55
2023-02-18T18:04:15.446Z,8.32
2023-02-18T18:06:49.091Z,8.33
2023-02-18T18:09:21.543Z,8.35
2023-02-18T18:11:53.920Z,8.31
2023-02-18T18:14:26.973Z,8.31
2023-02-18T18:17:01.950Z,8.30
2023-02-18T18:19:34.260Z,8.33
2023-02-18T18:22:07.742Z,8.31
2023-02-18T18:24:40.047Z,8.29
2023-02-18T18:27:12.693Z,8.28
2023-02-18T18:29:44.951Z,8.19
2023-02-18T18:32:17.880Z,8.03
2023-02-18T18:34:50.167Z,8.11
2023-02-18T18:37:22.490Z,8.16
2023-02-18T18:39:54.819Z,8.17
2023-02-18T18:42:27.215Z,8.07
2023-02-18T18:44:59.550Z,8.10
2023-02-18T18:47:32.450Z,8.13
2023-02-18T18:50:05.056Z,8.13
2023-02-18T18:52:37.497Z,8.05
2023-02-18T18:55:28.119Z,8.06
2023-02-18T18:58:00.983Z,7.98
2023-02-18T19:00:36.026Z,7.95
2023-02-18T19:03:11.430Z,7.88
2023-02-18T19:05:44.794Z,7.87
2023-02-18T19:08:19.546Z,7.84
2023-02-18T19:10:54.157Z,7.77
2023-02-18T19:13:29.813Z,7.61
2023-02-18T19:16:07.465Z,7.40
2023-02-18T19:18:40.592Z,7.42
2023-02-18T19:21:12.909Z,7.35
2023-02-18T19:23:45.295Z,7.33
2023-02-18T19:26:17.642Z,7.25
2023-02-18T19:28:49.921Z,7.23
2023-02-18T19:31:23.515Z,7.17
2023-02-18T19:33:56.595Z,7.15
2023-02-18T19:36:28.923Z,7.12
2023-02-18T19:39:01.335Z,7.09
2023-02-18T19:41:33.671Z,7.15
2023-02-18T19:44:05.983Z,7.10
2023-02-18T19:46:38.297Z,7.12
2023-02-18T19:49:11.247Z,7.16
2023-02-18T19:51:43.558Z,7.17
2023-02-18T19:54:15.843Z,7.22
2023-02-18T19:56:48.163Z,7.26
2023-02-18T19:59:20.499Z,7.23
2023-02-18T20:01:52.938Z,7.23
2023-02-18T20:04:25.912Z,7.29
2023-02-18T20:06:58.273Z,7.31
2023-02-18T20:09:30.621Z,7.34
2023-02-18T20:12:04.201Z,7.30
2023-02-18T20:14:43.618Z,7.33
2023-02-18T20:17:16.590Z,7.31
2023-02-18T20:19:49.577Z,7.29
2023-02-18T20:22:22.163Z,7.25
2023-02-18T20:24:54.472Z,7.29
2023-02-18T20:27:26.859Z,7.29
2023-02-18T20:29:59.249Z,7.21
2023-02-18T20:32:33.613Z,7.20
2023-02-18T20:35:07.971Z,7.17
2023-02-18T20:37:40.384Z,7.19
2023-02-18T20:40:12.698Z,7.16
2023-02-18T20:42:45.065Z,7.15
2023-02-18T20:45:17.633Z,7.15
2023-02-18T20:47:49.945Z,7.20
2023-02-18T20:50:23.433Z,7.24
2023-02-18T20:52:55.692Z,7.25
2023-02-18T20:55:28.013Z,7.33
2023-02-18T20:58:00.294Z,7.27
2023-02-18T21:00:32.781Z,7.35
2023-02-18T21:03:05.123Z,7.42
2023-02-18T21:05:38.123Z,7.39
2023-02-18T21:08:10.416Z,7.37
2023-02-18T21:10:42.724Z,7.38
2023-02-18T21:13:14.953Z,7.38
2023-02-18T21:15:47.528Z,7.33
2023-02-18T21:18:19.970Z,7.42
2023-02-18T21:20:53.010Z,7.37
2023-02-18T21:23:25.305Z,7.46
2023-02-18T21:26:02.662Z,7.59
2023-02-18T21:28:36.059Z,7.61
2023-02-18T21:31:16.526Z,7.73
2023-02-18T21:33:48.903Z,7.68
2023-02-18T21:36:22.530Z,7.51
2023-02-18T21:38:56.907Z,7.71
2023-02-18T21:41:29.925Z,7.61
2023-02-18T21:44:02.245Z,7.66
2023-02-18T21:46:35.580Z,7.59
2023-02-18T21:49:09.050Z,7.71
2023-02-18T21:51:56.345Z,7.68
2023-02-18T21:54:30.745Z,7.67
2023-02-18T21:57:04.457Z,7.82
2023-02-18T21:59:36.868Z,7.81
2023-02-18T22:02:15.506Z,8.00
2023-02-18T22:04:49.191Z,8.02
2023-02-18T22:07:24.674Z,8.18
2023-02-18T22:09:56.929Z,8.27
2023-02-18T22:12:31.313Z,8.24
2023-02-18T22:15:04.042Z,8.25
2023-02-18T22:17:36.399Z,8.31
2023-02-18T22:20:09.972Z,8.35
2023-02-18T22:22:42.939Z,8.44
2023-02-18T22:25:15.442Z,8.58
2023-02-18T22:27:47.696Z,8.81
2023-02-18T22:30:20.057Z,8.94
2023-02-18T22:32:52.392Z,9.10
2023-02-18T22:35:25.099Z,9.23
2023-02-18T22:37:58.095Z,9.43
2023-02-18T22:40:30.443Z,9.57
2023-02-18T22:43:02.778Z,9.65
2023-02-18T22:45:36.168Z,9.74
2023-02-18T22:48:08.467Z,9.89
2023-02-18T22:50:40.735Z,9.93
2023-02-18T22:53:13.700Z,9.91
2023-02-18T22:55:45.962Z,10.00
2023-02-18T22:58:18.207Z,10.07
2023-02-18T23:00:50.496Z,10.01
2023-02-18T23:03:22.840Z,10.04
2023-02-18T23:05:55.472Z,10.18
2023-02-18T23:08:28.720Z,10.19
2023-02-18T23:11:01.459Z,10.17
2023-02-18T23:13:33.765Z,10.20
2023-02-18T23:16:08.035Z,10.25
2023-02-18T23:18:40.408Z,10.26
2023-02-18T23:21:17.612Z,10.20
2023-02-18T23:23:52.159Z,10.22
2023-02-18T23:26:25.390Z,10.20
2023-02-18T23:28:57.848Z,10.33
2023-02-18T23:31:30.358Z,10.20
2023-02-18T23:34:03.902Z,10.07
2023-02-18T23:36:36.332Z,10.10
2023-02-18T23:39:11.358Z,9.96
2023-02-18T23:41:44.413Z,10.00
2023-02-18T23:44:18.733Z,9.96
2023-02-18T23:46:51.679Z,10.03
2023-02-18T23:49:25.842Z,10.03
2023-02-18T23:51:58.279Z,9.97
2023-02-18T23:54:31.270Z,10.00
2023-02-18T23:57:03.662Z,9.94
2023-02-18T23:59:36.001Z,9.96
